Aviation Digital Data Service (ADDS)

Output produced by TAFs form (1351 UTC 18 January 2018)
found at http://www.aviationweather.gov/adds/tafs/
 
KSBY 181140Z 1812/1912 31012G20KT P6SM SKC 
     FM182000 29012KT P6SM SKC 
     FM182300 25005KT P6SM SKC